Time;durP1;ratioP1;P1;durP2;ratioP2;P2;SDS_P1;SDS_P2;PMS_P1;PMS_P2;Temp;Humidity;BMP_temperature;BMP_pressure;BME280_temperature;BME280_humidity;BME280_pressure;Samples;Min_cycle;Max_cycle;Signal;HPM_P1;HPM_P2
2021/06/18 00:02:15;;;;;;;2.63;2.10;;;26.20;50.80;;;;;;5020823;28;20376;-59
2021/06/18 00:04:41;;;;;;;3.38;2.33;;;26.20;50.50;;;;;;5023888;28;20037;-58
2021/06/18 00:07:07;;;;;;;2.65;2.28;;;26.30;50.70;;;;;;5013198;28;20034;-58
2021/06/18 00:09:32;;;;;;;2.92;2.20;;;26.20;50.60;;;;;;5027966;28;20040;-58
2021/06/18 00:11:58;;;;;;;2.50;1.95;;;26.30;50.60;;;;;;5024158;28;20079;-58
2021/06/18 00:14:24;;;;;;;3.03;2.13;;;26.30;50.60;;;;;;5021786;28;20502;-58
2021/06/18 00:16:49;;;;;;;4.25;1.95;;;26.30;50.50;;;;;;5026201;28;20410;-58
2021/06/18 00:19:15;;;;;;;4.03;2.58;;;26.30;50.40;;;;;;5017158;28;20063;-58
2021/06/18 00:21:41;;;;;;;3.92;2.03;;;26.30;50.40;;;;;;5019477;28;20112;-58
2021/06/18 00:24:07;;;;;;;2.92;1.90;;;26.30;50.30;;;;;;5031109;28;20036;-58
2021/06/18 00:26:33;;;;;;;3.15;2.10;;;26.30;50.30;;;;;;5025689;28;20049;-58
2021/06/18 00:28:58;;;;;;;2.70;2.30;;;26.30;51.00;;;;;;5013693;28;20030;-58
2021/06/18 00:31:24;;;;;;;2.95;2.33;;;26.30;50.30;;;;;;5020117;28;20052;-58
2021/06/18 00:33:50;;;;;;;2.88;2.00;;;26.30;50.30;;;;;;5013040;28;20080;-57
2021/06/18 00:36:15;;;;;;;5.03;2.83;;;26.30;50.40;;;;;;5029728;28;20069;-58
2021/06/18 00:38:41;;;;;;;3.80;2.20;;;26.30;50.40;;;;;;5014910;28;20045;-58
2021/06/18 00:41:09;;;;;;;3.85;2.30;;;26.30;50.40;;;;;;5024340;28;20037;-58
2021/06/18 00:43:35;;;;;;;3.05;2.08;;;26.30;50.40;;;;;;5031080;28;20029;-58
2021/06/18 00:46:01;;;;;;;2.50;2.30;;;26.30;50.40;;;;;;5015528;28;20783;-58
2021/06/18 00:48:27;;;;;;;2.63;1.77;;;26.30;50.30;;;;;;5028121;28;20042;-59
2021/06/18 00:50:54;;;;;;;3.42;2.30;;;26.30;50.30;;;;;;5024824;28;20080;-59
2021/06/18 00:53:19;;;;;;;2.30;1.85;;;26.20;50.20;;;;;;5030315;28;20129;-58
2021/06/18 00:55:48;;;;;;;3.72;2.08;;;26.20;49.90;;;;;;5029866;28;20120;-56
2021/06/18 00:58:13;;;;;;;3.92;1.98;;;26.20;49.80;;;;;;5026317;28;20048;-58
2021/06/18 01:00:40;;;;;;;2.75;2.05;;;26.20;49.90;;;;;;5020617;28;20037;-56
2021/06/18 01:03:06;;;;;;;3.28;2.10;;;26.20;50.00;;;;;;5030015;28;20037;-57
2021/06/18 01:05:32;;;;;;;3.17;2.60;;;26.20;49.90;;;;;;5018436;28;20044;-58
2021/06/18 01:08:00;;;;;;;3.45;2.38;;;26.20;50.00;;;;;;5013404;28;20026;-58
2021/06/18 01:10:42;;;;;;;3.58;2.15;;;26.20;49.90;;;;;;5020749;28;20033;-58
2021/06/18 01:13:22;;;;;;;2.60;1.88;;;26.20;49.90;;;;;;5018427;28;20053;-58
2021/06/18 01:16:01;;;;;;;2.85;2.13;;;26.20;49.80;;;;;;5021502;28;20034;-58
2021/06/18 01:18:33;;;;;;;2.35;2.00;;;26.20;49.80;;;;;;5024927;28;20043;-58
2021/06/18 01:21:23;;;;;;;3.92;2.72;;;26.20;49.80;;;;;;5016320;28;20116;-57
2021/06/18 01:23:59;;;;;;;2.55;1.92;;;26.20;49.80;;;;;;5023201;28;20112;-57
2021/06/18 01:26:42;;;;;;;3.15;2.03;;;26.20;49.80;;;;;;5030382;28;20032;-57
2021/06/18 01:29:08;;;;;;;3.60;2.17;;;26.20;49.90;;;;;;5031759;28;20022;-58
2021/06/18 01:31:41;;;;;;;3.47;2.22;;;26.20;49.90;;;;;;5028318;28;20048;-58
2021/06/18 01:34:23;;;;;;;2.55;2.15;;;26.20;49.80;;;;;;5017206;28;20152;-58
2021/06/18 01:36:53;;;;;;;2.72;1.90;;;26.20;49.80;;;;;;5029033;28;20036;-57
2021/06/18 01:39:21;;;;;;;2.55;2.10;;;26.20;49.90;;;;;;5029550;28;20104;-58
2021/06/18 01:41:49;;;;;;;2.42;2.22;;;26.20;49.90;;;;;;5024012;28;20360;-56
2021/06/18 01:44:16;;;;;;;3.17;2.03;;;26.20;49.90;;;;;;5028420;28;20033;-58
2021/06/18 01:46:44;;;;;;;2.70;2.15;;;26.20;49.90;;;;;;5028745;28;20037;-59
2021/06/18 01:49:13;;;;;;;2.88;2.20;;;26.20;50.00;;;;;;5022959;28;20545;-57
2021/06/18 01:51:41;;;;;;;6.82;2.25;;;26.20;50.00;;;;;;5025193;28;20076;-57
2021/06/18 01:54:09;;;;;;;2.78;2.15;;;26.20;50.00;;;;;;5021868;28;20264;-58
2021/06/18 01:56:37;;;;;;;3.78;2.63;;;26.20;50.00;;;;;;5027028;28;20108;-59
2021/06/18 01:59:05;;;;;;;3.35;2.85;;;26.20;50.00;;;;;;5011935;28;20022;-57
2021/06/18 02:01:38;;;;;;;2.40;1.90;;;26.20;50.10;;;;;;5013486;28;20038;-58
2021/06/18 02:04:05;;;;;;;2.50;2.20;;;26.20;50.10;;;;;;5029133;28;20032;-58
2021/06/18 02:06:33;;;;;;;2.95;2.08;;;26.20;50.10;;;;;;5022218;28;20501;-58
2021/06/18 02:09:00;;;;;;;2.30;2.10;;;26.20;50.10;;;;;;5021355;28;20026;-59
2021/06/18 02:11:29;;;;;;;3.63;2.72;;;26.20;50.10;;;;;;5023448;28;20036;-58
2021/06/18 02:13:56;;;;;;;3.33;2.35;;;26.20;50.10;;;;;;5021600;28;20021;-58
2021/06/18 02:16:26;;;;;;;2.53;2.22;;;26.20;50.00;;;;;;5028401;28;20555;-58
2021/06/18 02:18:55;;;;;;;4.28;2.40;;;26.20;49.90;;;;;;5023539;28;20029;-58
2021/06/18 02:21:24;;;;;;;5.20;2.42;;;26.10;50.40;;;;;;5021252;28;20061;-58
2021/06/18 02:23:51;;;;;;;3.90;2.20;;;26.20;49.80;;;;;;5019399;28;20092;-57
2021/06/18 02:26:18;;;;;;;3.88;2.20;;;26.20;49.90;;;;;;5026103;28;20036;-58
2021/06/18 02:28:44;;;;;;;2.28;2.00;;;26.20;50.00;;;;;;5014758;28;20486;-58
2021/06/18 02:31:13;;;;;;;3.97;2.33;;;26.10;49.90;;;;;;5014863;28;20117;-58
2021/06/18 02:33:39;;;;;;;2.70;2.40;;;26.20;49.90;;;;;;5009196;28;20026;-58
2021/06/18 02:36:05;;;;;;;3.05;2.45;;;26.10;49.90;;;;;;5009951;28;20475;-58
2021/06/18 02:38:32;;;;;;;3.63;2.80;;;26.20;50.00;;;;;;5013589;28;20429;-58
2021/06/18 02:40:57;;;;;;;3.83;2.47;;;26.10;49.90;;;;;;5018664;28;20483;-58
2021/06/18 02:43:23;;;;;;;3.72;2.33;;;26.10;49.90;;;;;;5022484;28;20037;-58
2021/06/18 02:45:49;;;;;;;4.18;2.13;;;26.20;50.00;;;;;;5018927;28;20191;-57
2021/06/18 02:48:22;;;;;;;2.45;1.90;;;26.20;50.00;;;;;;5020530;28;20038;-58
2021/06/18 02:51:09;;;;;;;2.95;2.35;;;26.10;49.90;;;;;;5016779;28;20022;-58
2021/06/18 02:53:46;;;;;;;3.50;2.50;;;26.10;50.00;;;;;;5007538;28;20478;-58
2021/06/18 02:56:23;;;;;;;2.53;2.33;;;26.10;50.00;;;;;;5030924;28;20034;-58
2021/06/18 02:59:10;;;;;;;4.40;2.20;;;26.10;50.00;;;;;;5031607;28;20025;-58
2021/06/18 03:01:40;;;;;;;3.05;2.33;;;26.10;50.00;;;;;;5022902;28;20033;-58
2021/06/18 03:04:10;;;;;;;4.20;2.30;;;26.10;50.10;;;;;;5021959;28;20046;-58
2021/06/18 03:06:40;;;;;;;3.22;2.55;;;26.10;50.10;;;;;;5020472;28;20073;-58
2021/06/18 03:09:07;;;;;;;3.72;2.17;;;26.10;50.10;;;;;;5022197;28;20398;-57
2021/06/18 03:11:39;;;;;;;3.28;2.53;;;26.10;50.10;;;;;;5018224;28;20048;-58
2021/06/18 03:14:11;;;;;;;2.95;2.30;;;26.10;50.10;;;;;;5024521;28;20029;-58
2021/06/18 03:16:40;;;;;;;4.68;2.40;;;26.10;50.30;;;;;;5032354;28;20044;-58
2021/06/18 03:19:08;;;;;;;4.07;2.35;;;26.10;50.40;;;;;;5018753;28;20038;-58
2021/06/18 03:21:35;;;;;;;2.60;2.30;;;26.10;51.10;;;;;;5018621;28;20058;-58
2021/06/18 03:24:03;;;;;;;2.45;2.22;;;26.10;50.50;;;;;;5015198;28;20038;-58
2021/06/18 03:26:29;;;;;;;3.78;2.50;;;26.10;50.60;;;;;;5016967;28;20037;-58
2021/06/18 03:28:57;;;;;;;3.63;2.70;;;26.10;50.60;;;;;;5023667;28;20032;-58
2021/06/18 03:31:24;;;;;;;4.00;2.70;;;26.10;50.60;;;;;;5025274;28;20026;-58
2021/06/18 03:33:51;;;;;;;4.63;2.42;;;26.10;50.70;;;;;;5025218;28;20032;-56
2021/06/18 03:36:26;;;;;;;3.35;2.63;;;26.10;50.80;;;;;;5028844;28;20053;-58
2021/06/18 03:38:53;;;;;;;3.65;2.20;;;26.10;50.80;;;;;;5021703;28;20033;-57
2021/06/18 03:41:22;;;;;;;3.38;2.55;;;26.10;50.80;;;;;;5025474;28;20025;-58
2021/06/18 03:43:49;;;;;;;5.47;2.90;;;26.10;50.80;;;;;;5019517;28;20113;-58
2021/06/18 03:46:17;;;;;;;5.35;2.58;;;26.10;50.90;;;;;;5021856;28;20033;-58
2021/06/18 03:48:45;;;;;;;3.60;2.38;;;26.10;51.00;;;;;;5023535;28;20037;-59
2021/06/18 03:51:11;;;;;;;3.20;2.83;;;26.10;51.00;;;;;;5028917;28;20099;-58
2021/06/18 03:53:38;;;;;;;2.78;2.33;;;26.10;51.00;;;;;;5016827;28;20057;-58
2021/06/18 03:56:05;;;;;;;5.07;3.03;;;26.10;51.00;;;;;;5030205;28;20115;-58
2021/06/18 03:58:32;;;;;;;4.40;2.40;;;26.10;51.00;;;;;;5032821;28;20034;-58
2021/06/18 04:01:00;;;;;;;2.78;2.50;;;26.10;51.00;;;;;;5017150;28;20030;-58
2021/06/18 04:03:27;;;;;;;3.55;2.30;;;26.10;51.10;;;;;;5022519;28;20037;-58
2021/06/18 04:06:00;;;;;;;3.80;2.53;;;26.10;51.10;;;;;;5018947;28;20068;-56
2021/06/18 04:08:27;;;;;;;5.32;3.30;;;26.10;51.20;;;;;;5017064;28;20034;-57
2021/06/18 04:10:54;;;;;;;4.05;2.53;;;26.10;51.20;;;;;;5021105;28;20059;-58
2021/06/18 04:13:20;;;;;;;3.05;2.60;;;26.10;51.20;;;;;;5026280;28;20113;-58
2021/06/18 04:15:47;;;;;;;4.25;3.78;;;26.10;51.30;;;;;;5025658;28;20435;-58
2021/06/18 04:18:19;;;;;;;5.13;2.60;;;26.10;51.30;;;;;;5005514;28;20076;-58
2021/06/18 04:20:45;;;;;;;3.30;2.53;;;26.10;51.30;;;;;;5025916;28;20045;-58
2021/06/18 04:23:10;;;;;;;4.10;2.80;;;26.10;51.40;;;;;;5022745;28;20207;-58
2021/06/18 04:25:36;;;;;;;4.38;2.70;;;26.10;51.40;;;;;;5032081;28;20128;-58
2021/06/18 04:28:02;;;;;;;4.13;3.00;;;26.10;51.40;;;;;;5022786;28;20040;-57
2021/06/18 04:30:28;;;;;;;4.13;2.92;;;26.10;51.40;;;;;;5016542;28;20025;-58
2021/06/18 04:32:53;;;;;;;3.75;2.85;;;26.10;51.40;;;;;;5030440;28;20036;-57
2021/06/18 04:35:19;;;;;;;3.97;2.60;;;26.10;51.40;;;;;;5032503;28;20090;-58
2021/06/18 04:37:45;;;;;;;3.05;2.50;;;26.10;51.40;;;;;;5022082;28;20041;-59
2021/06/18 04:40:12;;;;;;;3.70;3.40;;;26.10;51.40;;;;;;5020839;28;20029;-60
2021/06/18 04:42:37;;;;;;;4.90;3.40;;;25.60;51.90;;;;;;5021880;28;20463;-59
2021/06/18 04:45:05;;;;;;;5.47;3.30;;;25.30;53.10;;;;;;5028519;28;20109;-59
2021/06/18 04:47:31;;;;;;;7.70;3.67;;;25.00;54.10;;;;;;5014326;28;20077;-59
2021/06/18 04:49:57;;;;;;;8.10;3.60;;;24.90;54.30;;;;;;5012527;28;20038;-59
2021/06/18 04:52:22;;;;;;;6.80;3.47;;;25.00;54.10;;;;;;5021508;28;20045;-59
2021/06/18 04:54:54;;;;;;;8.00;3.80;;;24.90;54.30;;;;;;5031347;28;20034;-59
2021/06/18 04:57:21;;;;;;;4.85;3.70;;;24.90;54.70;;;;;;5023299;28;20025;-59
2021/06/18 04:59:46;;;;;;;5.72;3.55;;;24.80;54.90;;;;;;5022182;28;20033;-59
2021/06/18 05:02:12;;;;;;;6.20;3.63;;;24.80;55.20;;;;;;5019270;28;20096;-59
2021/06/18 05:04:38;;;;;;;4.07;3.15;;;24.90;55.30;;;;;;5012982;28;20077;-59
2021/06/18 05:07:03;;;;;;;5.10;3.08;;;24.90;55.40;;;;;;5019542;28;20030;-59
2021/06/18 05:09:29;;;;;;;6.63;4.40;;;24.80;55.70;;;;;;5021199;28;20113;-60
2021/06/18 05:11:55;;;;;;;8.25;5.05;;;24.90;55.80;;;;;;5019583;28;20487;-59
2021/06/18 05:14:20;;;;;;;8.48;3.88;;;24.90;55.40;;;;;;5013657;28;20095;-59
2021/06/18 05:16:46;;;;;;;7.13;4.07;;;25.00;55.40;;;;;;5027947;28;20029;-59
2021/06/18 05:19:12;;;;;;;4.75;3.67;;;25.00;55.70;;;;;;5019311;28;20615;-59
2021/06/18 05:21:38;;;;;;;4.65;3.70;;;25.00;56.00;;;;;;5012412;28;20379;-59
2021/06/18 05:24:05;;;;;;;9.38;4.95;;;25.00;56.40;;;;;;5010931;28;20065;-59
2021/06/18 05:26:32;;;;;;;8.43;4.50;;;25.00;56.60;;;;;;5020256;28;20395;-59
2021/06/18 05:28:59;;;;;;;7.38;4.38;;;25.00;56.50;;;;;;5019657;28;20426;-58
2021/06/18 05:31:24;;;;;;;7.40;4.25;;;25.00;57.20;;;;;;5029122;28;20034;-59
2021/06/18 05:33:50;;;;;;;8.23;4.78;;;25.10;57.40;;;;;;5017508;28;20490;-58
2021/06/18 05:36:16;;;;;;;12.93;5.03;;;25.10;57.20;;;;;;5022792;28;20479;-59
2021/06/18 05:38:41;;;;;;;9.30;4.80;;;25.10;57.90;;;;;;5029029;28;20022;-58
2021/06/18 05:41:07;;;;;;;9.15;4.80;;;25.00;58.20;;;;;;5019619;28;20041;-59
2021/06/18 05:43:33;;;;;;;6.65;4.28;;;25.10;58.30;;;;;;5018770;28;20118;-59
2021/06/18 05:45:59;;;;;;;13.18;4.95;;;25.10;57.90;;;;;;5020989;28;20033;-59
2021/06/18 05:48:25;;;;;;;9.52;4.82;;;25.20;57.80;;;;;;5017627;28;20116;-59
2021/06/18 05:50:51;;;;;;;10.05;4.03;;;25.20;57.60;;;;;;5029543;28;20052;-59
2021/06/18 05:53:22;;;;;;;8.82;4.65;;;25.20;57.60;;;;;;5023426;28;20057;-60
2021/06/18 05:55:48;;;;;;;8.00;4.13;;;25.20;57.60;;;;;;5029995;28;20033;-62
2021/06/18 05:58:14;;;;;;;8.10;4.30;;;25.20;57.20;;;;;;5030101;28;20581;-62
2021/06/18 06:00:41;;;;;;;7.43;4.30;;;25.30;57.40;;;;;;5023106;28;20506;-63
2021/06/18 06:03:07;;;;;;;5.13;4.00;;;25.40;57.50;;;;;;5018081;28;20029;-59
2021/06/18 06:05:33;;;;;;;7.43;4.65;;;25.40;57.40;;;;;;5013042;28;20549;-60
2021/06/18 06:07:58;;;;;;;8.07;4.07;;;25.40;57.90;;;;;;5019175;28;20026;-63
2021/06/18 06:10:24;;;;;;;7.78;4.57;;;25.40;58.20;;;;;;5022729;28;20434;-63
2021/06/18 06:12:50;;;;;;;6.75;3.97;;;25.60;57.70;;;;;;5020894;28;20040;-68
2021/06/18 06:15:15;;;;;;;8.38;4.05;;;25.70;57.30;;;;;;5030444;28;20040;-64
2021/06/18 06:17:43;;;;;;;5.55;4.13;;;25.90;57.00;;;;;;5022465;28;20030;-63
2021/06/18 06:20:10;;;;;;;5.28;3.75;;;25.90;56.80;;;;;;5017133;28;20034;-63
2021/06/18 06:22:35;;;;;;;9.88;3.70;;;26.00;56.70;;;;;;5043958;28;20065;-64
2021/06/18 06:25:02;;;;;;;7.18;4.22;;;26.00;56.50;;;;;;5027478;28;20091;-64
2021/06/18 06:27:27;;;;;;;7.90;3.65;;;26.00;56.40;;;;;;5018952;28;20096;-64
2021/06/18 06:29:53;;;;;;;7.28;4.00;;;26.00;56.40;;;;;;5022043;28;20036;-60
2021/06/18 06:32:19;;;;;;;5.60;3.85;;;26.00;56.40;;;;;;5012666;28;20022;-63
2021/06/18 06:34:45;;;;;;;6.32;3.80;;;26.00;56.30;;;;;;5018667;28;20083;-63
2021/06/18 06:37:10;;;;;;;6.35;3.63;;;26.00;56.20;;;;;;5017434;28;20030;-64
2021/06/18 06:39:36;;;;;;;8.13;3.53;;;26.00;56.10;;;;;;5017543;28;20421;-63
2021/06/18 06:42:04;;;;;;;5.00;3.47;;;26.00;56.10;;;;;;5017601;28;20030;-63
2021/06/18 06:44:30;;;;;;;5.88;3.33;;;26.10;56.10;;;;;;5031494;28;20121;-64
2021/06/18 06:46:55;;;;;;;4.18;3.63;;;26.10;56.00;;;;;;5023144;28;20113;-63
2021/06/18 06:49:21;;;;;;;5.82;3.22;;;26.10;56.10;;;;;;5022484;28;20033;-64
2021/06/18 06:51:47;;;;;;;5.50;3.95;;;26.10;56.10;;;;;;5016461;28;20049;-63
2021/06/18 06:54:12;;;;;;;6.95;3.28;;;26.10;56.10;;;;;;5016447;28;20026;-64
2021/06/18 06:56:38;;;;;;;4.60;3.72;;;26.10;56.20;;;;;;5032324;28;20132;-63
2021/06/18 06:59:04;;;;;;;5.10;3.13;;;26.10;56.10;;;;;;5034064;28;20077;-63
2021/06/18 07:01:29;;;;;;;6.03;4.28;;;26.10;56.00;;;;;;5031835;28;20445;-64
2021/06/18 07:03:55;;;;;;;6.20;3.22;;;26.10;55.80;;;;;;5033120;28;20468;-59
2021/06/18 07:06:21;;;;;;;4.40;3.50;;;26.10;55.80;;;;;;5032314;28;20144;-64
2021/06/18 07:08:47;;;;;;;5.68;3.33;;;26.10;55.80;;;;;;5022433;28;20466;-63
2021/06/18 07:11:13;;;;;;;4.88;3.30;;;26.10;55.80;;;;;;5023677;28;20033;-64
2021/06/18 07:13:38;;;;;;;4.70;3.10;;;26.10;55.80;;;;;;5026803;28;20365;-63
2021/06/18 07:16:04;;;;;;;4.47;3.28;;;26.10;55.90;;;;;;5024749;28;20088;-64
2021/06/18 07:18:33;;;;;;;7.20;3.55;;;26.10;55.70;;;;;;5023717;28;20491;-59
2021/06/18 07:20:58;;;;;;;4.13;3.05;;;26.10;55.70;;;;;;5012414;28;20053;-59
2021/06/18 07:23:24;;;;;;;5.13;3.35;;;26.10;55.80;;;;;;5014601;28;20026;-64
2021/06/18 07:25:50;;;;;;;5.25;3.17;;;26.20;55.80;;;;;;5027953;28;20453;-63
2021/06/18 07:28:15;;;;;;;4.88;3.65;;;26.10;55.80;;;;;;5016614;28;20030;-63
2021/06/18 07:30:42;;;;;;;4.93;3.63;;;26.10;55.70;;;;;;5024357;28;20049;-64
2021/06/18 07:33:09;;;;;;;6.60;3.38;;;26.10;55.70;;;;;;5019518;28;20029;-64
2021/06/18 07:35:36;;;;;;;5.82;3.40;;;26.20;55.80;;;;;;5026326;28;20040;-64
2021/06/18 07:38:03;;;;;;;8.20;3.90;;;26.20;55.70;;;;;;5025205;28;20493;-64
2021/06/18 07:40:29;;;;;;;5.63;3.35;;;26.20;55.60;;;;;;5023441;28;20451;-63
2021/06/18 07:42:55;;;;;;;4.75;3.60;;;26.20;55.60;;;;;;5015362;28;20152;-64
2021/06/18 07:45:21;;;;;;;5.60;3.35;;;26.20;55.60;;;;;;5021550;28;20129;-63
2021/06/18 07:47:46;;;;;;;3.50;3.08;;;26.20;55.50;;;;;;5023088;28;20028;-64
2021/06/18 07:50:15;;;;;;;6.05;3.80;;;26.20;55.50;;;;;;5021760;28;20392;-64
2021/06/18 07:52:41;;;;;;;6.07;3.55;;;26.20;55.40;;;;;;5014549;28;20042;-64
2021/06/18 07:55:10;;;;;;;5.88;3.17;;;26.20;55.30;;;;;;5012699;28;20053;-64
2021/06/18 07:57:36;;;;;;;7.45;3.58;;;26.20;55.40;;;;;;5018206;28;20479;-62
2021/06/18 08:00:07;;;;;;;5.82;3.47;;;26.20;55.40;;;;;;5014320;28;20038;-63
2021/06/18 08:02:33;;;;;;;5.03;3.05;;;26.20;55.50;;;;;;5019601;28;20025;-64
2021/06/18 08:04:58;;;;;;;5.35;3.45;;;26.20;55.80;;;;;;5028975;28;20083;-63
2021/06/18 08:07:24;;;;;;;5.47;3.63;;;26.20;55.60;;;;;;5019000;28;20033;-64
2021/06/18 08:09:51;;;;;;;6.60;2.90;;;26.20;55.50;;;;;;5022946;28;20037;-64
2021/06/18 08:12:17;;;;;;;5.15;3.00;;;26.20;55.50;;;;;;5024744;28;20022;-64
2021/06/18 08:14:43;;;;;;;5.68;3.22;;;26.20;55.40;;;;;;5017286;28;20080;-63
2021/06/18 08:17:08;;;;;;;5.10;3.53;;;26.20;55.40;;;;;;5015628;28;20429;-63
2021/06/18 08:19:34;;;;;;;10.93;3.35;;;26.30;55.40;;;;;;5021840;28;20123;-64
2021/06/18 08:22:00;;;;;;;7.82;4.28;;;26.30;55.30;;;;;;5021511;28;20022;-60
2021/06/18 08:24:26;;;;;;;4.97;3.33;;;26.30;55.60;;;;;;5021041;28;20060;-65
2021/06/18 08:26:51;;;;;;;4.40;3.28;;;26.20;55.60;;;;;;5021754;28;20022;-64
2021/06/18 08:29:17;;;;;;;4.35;3.50;;;26.20;55.60;;;;;;5025421;28;20133;-64
2021/06/18 08:31:43;;;;;;;4.90;2.92;;;26.20;55.50;;;;;;5014951;28;20048;-64
2021/06/18 08:34:09;;;;;;;6.07;3.45;;;26.20;55.50;;;;;;5029824;28;20448;-64
2021/06/18 08:36:35;;;;;;;4.97;3.40;;;26.30;55.60;;;;;;5018321;28;20033;-64
2021/06/18 08:39:03;;;;;;;6.75;3.47;;;26.20;55.50;;;;;;5025423;28;20398;-60
2021/06/18 08:41:29;;;;;;;5.20;3.40;;;26.30;55.50;;;;;;5022796;28;20025;-64
2021/06/18 08:43:55;;;;;;;4.65;3.13;;;26.30;55.50;;;;;;5013525;28;20038;-64
2021/06/18 08:46:21;;;;;;;5.07;3.22;;;26.30;55.40;;;;;;5018592;28;20036;-63
2021/06/18 08:48:48;;;;;;;4.90;3.95;;;26.30;55.50;;;;;;5019890;28;20029;-64
2021/06/18 08:51:14;;;;;;;3.75;3.00;;;26.30;55.40;;;;;;5027481;28;20033;-64
2021/06/18 08:53:42;;;;;;;5.07;3.15;;;26.30;55.40;;;;;;5014416;28;20037;-64
2021/06/18 08:56:08;;;;;;;5.10;3.30;;;26.30;55.40;;;;;;5026501;28;20467;-64
2021/06/18 08:58:34;;;;;;;4.05;2.92;;;26.30;55.50;;;;;;5019196;28;20041;-64
2021/06/18 09:01:00;;;;;;;6.60;2.95;;;26.30;55.40;;;;;;5026997;28;20030;-59
2021/06/18 09:03:37;;;;;;;4.47;2.72;;;26.30;56.10;;;;;;5022138;28;20521;-64
2021/06/18 09:06:28;;;;;;;4.65;3.55;;;26.30;55.40;;;;;;5013454;28;20026;-64
2021/06/18 09:09:14;;;;;;;4.32;3.45;;;26.30;55.40;;;;;;5013277;28;20030;-62
2021/06/18 09:11:51;;;;;;;3.78;3.20;;;26.30;55.40;;;;;;5019762;28;20029;-65
2021/06/18 09:14:28;;;;;;;3.95;3.30;;;26.30;55.40;;;;;;5020535;28;20042;-64
2021/06/18 09:17:23;;;;;;;3.10;2.80;;;26.30;55.40;;;;;;5025148;28;20036;-65
2021/06/18 09:19:53;;;;;;;4.28;3.10;;;26.30;55.30;;;;;;5031206;28;20033;-64
2021/06/18 09:22:35;;;;;;;4.37;3.30;;;26.30;55.40;;;;;;5013508;28;20053;-64
2021/06/18 09:25:09;;;;;;;5.20;2.72;;;26.30;55.40;;;;;;5022423;28;20379;-60
2021/06/18 09:27:37;;;;;;;4.10;3.00;;;26.30;55.40;;;;;;5029660;28;20025;-64
2021/06/18 09:30:27;;;;;;;4.32;3.40;;;26.30;55.40;;;;;;5013977;28;20053;-60
2021/06/18 09:33:21;;;;;;;3.63;3.08;;;26.30;55.40;;;;;;5030183;28;20112;-65
2021/06/18 09:36:09;;;;;;;5.03;3.38;;;26.30;55.40;;;;;;5006099;28;20111;-65
2021/06/18 09:38:41;;;;;;;5.55;3.35;;;26.30;55.40;;;;;;5020961;28;20495;-64
2021/06/18 09:41:29;;;;;;;3.58;2.88;;;26.30;55.40;;;;;;5022114;28;20049;-64
2021/06/18 09:44:10;;;;;;;3.47;3.17;;;26.30;55.40;;;;;;5021876;28;20026;-64
2021/06/18 09:46:55;;;;;;;3.50;2.78;;;26.30;55.40;;;;;;5013343;28;20476;-64
2021/06/18 09:49:39;;;;;;;3.95;3.30;;;26.30;55.40;;;;;;5015676;28;20049;-64
2021/06/18 09:52:09;;;;;;;4.20;2.95;;;26.30;55.40;;;;;;5018281;28;20049;-62
2021/06/18 09:54:42;;;;;;;3.42;2.83;;;26.30;56.00;;;;;;5011253;28;20034;-65
2021/06/18 09:57:11;;;;;;;5.30;3.20;;;26.30;55.30;;;;;;5020876;28;20101;-64
2021/06/18 10:00:00;;;;;;;3.65;3.05;;;26.30;55.30;;;;;;5018781;28;20053;-64
2021/06/18 10:02:43;;;;;;;3.50;2.80;;;26.30;55.30;;;;;;5025103;28;20029;-65
2021/06/18 10:05:14;;;;;;;4.10;3.42;;;26.30;55.40;;;;;;5006931;28;20034;-64
2021/06/18 10:07:40;;;;;;;4.17;3.70;;;26.30;55.40;;;;;;5013713;28;20376;-65
2021/06/18 10:10:12;;;;;;;3.55;3.25;;;26.40;55.40;;;;;;5012687;28;20265;-65
2021/06/18 10:12:39;;;;;;;4.35;3.55;;;26.40;56.00;;;;;;5017880;28;20475;-64
2021/06/18 10:15:07;;;;;;;3.50;3.10;;;26.40;55.90;;;;;;5012058;28;20034;-63
2021/06/18 10:17:35;;;;;;;4.22;3.08;;;26.40;55.80;;;;;;5028040;28;20120;-64
2021/06/18 10:20:04;;;;;;;4.68;3.50;;;26.40;55.90;;;;;;5026987;28;20040;-64
2021/06/18 10:22:31;;;;;;;4.47;3.40;;;26.40;55.80;;;;;;5014855;28;20058;-65
2021/06/18 10:25:07;;;;;;;4.07;3.25;;;26.40;55.80;;;;;;5018043;28;20033;-65
2021/06/18 10:27:44;;;;;;;3.47;3.13;;;26.40;55.80;;;;;;5013928;28;20029;-64
2021/06/18 10:30:44;;;;;;;3.95;3.28;;;26.40;55.70;;;;;;5019798;28;20105;-64
2021/06/18 10:33:28;;;;;;;4.45;2.95;;;26.40;55.80;;;;;;5016688;28;20021;-64
2021/06/18 10:38:38;;;;;;;4.00;3.22;;;26.40;55.80;;;;;;5023711;28;20112;-64
2021/06/18 10:41:03;;;;;;;4.28;3.22;;;26.40;55.70;;;;;;5013017;28;20030;-59
2021/06/18 10:43:45;;;;;;;4.30;3.05;;;26.40;55.80;;;;;;5020056;28;20029;-64
2021/06/18 10:46:33;;;;;;;4.25;2.97;;;26.40;55.70;;;;;;5014752;28;20061;-64
2021/06/18 10:49:06;;;;;;;5.07;3.35;;;26.40;55.60;;;;;;5019344;28;20479;-64
2021/06/18 10:51:37;;;;;;;5.47;3.05;;;26.40;55.60;;;;;;5024384;28;20072;-63
2021/06/18 10:54:36;;;;;;;3.78;2.95;;;26.40;55.70;;;;;;5020441;28;20036;-59
2021/06/18 10:57:23;;;;;;;4.00;3.60;;;26.40;55.60;;;;;;5016176;28;20042;-65
2021/06/18 10:59:54;;;;;;;5.05;3.60;;;26.40;55.50;;;;;;5029404;28;20034;-65
2021/06/18 11:02:41;;;;;;;5.33;3.07;;;26.40;55.50;;;;;;5014327;28;20036;-64
2021/06/18 11:05:15;;;;;;;3.85;3.00;;;26.40;55.50;;;;;;5019350;28;20038;-59
2021/06/18 11:07:43;;;;;;;4.10;3.03;;;26.40;55.50;;;;;;5024989;28;20036;-65
2021/06/18 11:10:12;;;;;;;3.30;3.00;;;26.40;55.40;;;;;;5012674;28;20033;-64
2021/06/18 11:12:43;;;;;;;4.50;2.85;;;26.40;55.40;;;;;;5029161;28;20036;-65
2021/06/18 11:15:28;;;;;;;4.40;3.50;;;26.40;55.30;;;;;;5021934;28;20378;-64
2021/06/18 11:18:05;;;;;;;3.90;3.20;;;26.40;55.30;;;;;;5010825;28;20038;-64
2021/06/18 11:20:33;;;;;;;3.90;3.40;;;26.40;55.20;;;;;;5020629;28;20050;-65
2021/06/18 11:23:12;;;;;;;3.33;3.03;;;26.40;55.20;;;;;;5025447;28;20577;-64
2021/06/18 11:25:41;;;;;;;3.70;3.40;;;26.40;55.10;;;;;;5025791;28;20033;-64
2021/06/18 11:28:19;;;;;;;3.38;3.08;;;26.40;55.10;;;;;;5016516;28;20068;-60
2021/06/18 11:31:30;;;;;;;3.20;2.90;;;26.40;55.00;;;;;;5025961;28;20034;-65
2021/06/18 11:33:59;;;;;;;3.83;3.00;;;26.40;54.90;;;;;;4999687;28;20041;-65
2021/06/18 11:36:26;;;;;;;3.83;3.13;;;26.40;54.80;;;;;;5024946;28;20486;-64
2021/06/18 11:38:53;;;;;;;2.95;2.63;;;26.40;54.70;;;;;;5022468;28;20053;-64
2021/06/18 11:41:21;;;;;;;4.15;2.67;;;26.40;54.70;;;;;;5025405;28;20021;-62
2021/06/18 11:43:50;;;;;;;3.75;3.20;;;26.40;54.60;;;;;;5027105;28;20109;-65
2021/06/18 11:46:19;;;;;;;3.35;2.78;;;26.40;54.50;;;;;;5021800;28;20053;-65
2021/06/18 11:48:44;;;;;;;2.83;2.53;;;26.40;54.40;;;;;;5030244;28;20079;-64
2021/06/18 11:51:24;;;;;;;2.83;2.53;;;26.40;54.30;;;;;;5022851;28;20067;-64
2021/06/18 11:53:51;;;;;;;4.00;3.20;;;26.40;54.20;;;;;;5017435;28;20117;-59
2021/06/18 11:56:16;;;;;;;2.88;2.55;;;26.40;54.10;;;;;;5014445;28;20440;-64
2021/06/18 11:58:44;;;;;;;3.00;2.60;;;26.40;54.70;;;;;;5030780;28;20116;-64
2021/06/18 12:01:10;;;;;;;3.25;2.95;;;26.40;54.00;;;;;;5015996;28;20052;-63
2021/06/18 12:03:35;;;;;;;4.15;2.72;;;26.40;54.00;;;;;;5017188;28;20018;-65
2021/06/18 12:06:23;;;;;;;3.65;2.70;;;26.50;54.00;;;;;;5029635;28;20104;-62
2021/06/18 12:09:15;;;;;;;2.97;2.63;;;26.50;54.00;;;;;;5020530;28;20474;-64
2021/06/18 12:12:01;;;;;;;4.07;2.80;;;26.50;54.00;;;;;;5016875;28;20038;-64
2021/06/18 12:14:41;;;;;;;3.80;2.80;;;26.50;53.90;;;;;;5027398;28;20033;-65
2021/06/18 12:17:08;;;;;;;3.10;2.80;;;26.40;53.80;;;;;;5009922;28;20101;-59
2021/06/18 12:19:35;;;;;;;3.28;2.80;;;26.50;53.90;;;;;;5022130;28;20029;-64
2021/06/18 12:22:14;;;;;;;2.75;2.47;;;26.40;53.80;;;;;;5022036;28;20029;-65
2021/06/18 12:24:45;;;;;;;2.60;2.40;;;26.40;53.80;;;;;;5013223;28;20037;-65
2021/06/18 12:27:38;;;;;;;3.38;2.90;;;26.40;54.30;;;;;;5013315;28;20387;-64
2021/06/18 12:30:06;;;;;;;3.90;2.97;;;26.50;53.70;;;;;;5019465;28;20033;-65
2021/06/18 12:32:36;;;;;;;3.53;2.80;;;26.50;53.70;;;;;;5023800;28;20033;-65
2021/06/18 12:35:06;;;;;;;4.03;2.63;;;26.50;53.60;;;;;;5016441;28;20491;-64
2021/06/18 12:37:47;;;;;;;3.17;2.78;;;26.50;53.60;;;;;;5026078;28;20033;-65
2021/06/18 12:40:18;;;;;;;2.88;2.60;;;26.50;53.60;;;;;;5023955;28;20028;-64
2021/06/18 12:42:51;;;;;;;3.05;2.75;;;26.50;53.50;;;;;;5029084;28;20173;-64
2021/06/18 12:45:17;;;;;;;3.17;2.45;;;26.50;53.50;;;;;;5022896;28;20067;-65
2021/06/18 12:47:45;;;;;;;2.97;2.72;;;26.50;53.50;;;;;;5024740;28;20034;-65
2021/06/18 12:50:30;;;;;;;3.67;2.67;;;26.50;53.50;;;;;;5020007;28;20033;-64
2021/06/18 12:53:02;;;;;;;2.88;2.60;;;26.50;53.40;;;;;;5024992;28;20356;-65
2021/06/18 12:55:32;;;;;;;2.80;2.50;;;26.50;53.40;;;;;;5016469;28;20034;-65
2021/06/18 12:58:06;;;;;;;3.22;2.92;;;26.50;53.30;;;;;;5012937;28;20037;-64
2021/06/18 13:00:41;;;;;;;3.00;2.40;;;26.50;53.30;;;;;;5012787;28;20021;-65
2021/06/18 13:03:07;;;;;;;3.25;2.58;;;26.50;53.20;;;;;;5012425;28;20034;-60